28 de maio de 2022

Hora Código Clima Temp. Visibilidade Tecto Vento METAR/SPECI
6:30 da tarde
V
81 °F 6¼ mi+ - 290° 290° 15 kt METAR LFMK 281630Z AUTO 29015KT CAVOK 27/11 Q1012 TEMPO 28015G25KT
6:00 da tarde
V
81 °F 6¼ mi+ - 290° 290° 15 kt METAR LFMK 281600Z AUTO 29015KT CAVOK 27/11 Q1012 TEMPO 28015G25KT
5:30 da tarde
V
81 °F 6¼ mi+ - 300° 300° 14 kt METAR LFMK 281530Z AUTO 30014KT 260V330 CAVOK 27/11 Q1012 TEMPO 28015G25KT
5:00 da tarde
V
81 °F 6¼ mi+ - 290° 290° 14 kt METAR LFMK 281500Z AUTO 29014KT CAVOK 27/13 Q1013 TEMPO 28015G25KT
4:30 da tarde
V
79 °F 6¼ mi+ - 300° 300° 16 kt METAR LFMK 281430Z AUTO 30016KT CAVOK 26/13 Q1013 TEMPO 28015G25KT
4:00 da tarde
V
79 °F 6¼ mi+ - 290° 290° 16 kt METAR LFMK 281400Z AUTO 29016KT 250V330 CAVOK 26/14 Q1013 TEMPO 28015G25KT
3:30 da tarde
V
77 °F 6¼ mi+ - 290° 290° 15 kt METAR LFMK 281330Z AUTO 29015KT 250V320 CAVOK 25/13 Q1014 TEMPO 28015G25KT
3:00 da tarde
V
79 °F 6¼ mi+ - 300° 300° 15 kt METAR LFMK 281300Z AUTO 30015KT CAVOK 26/13 Q1014 TEMPO 28015G25KT
2:30 da tarde
V
79 °F 6¼ mi+ - 300° 300° 14 kt METAR LFMK 281230Z AUTO 30014KT 270V330 CAVOK 26/14 Q1014 TEMPO 28015G25KT
2:00 da tarde
V
79 °F 6¼ mi+ - 290° 290° 16 kt METAR LFMK 281200Z AUTO 29016KT 240V310 CAVOK 26/13 Q1015 TEMPO 28015G25KT
1:30 da tarde
V
77 °F 6¼ mi+ - 300° 300° 16 kt METAR LFMK 281130Z AUTO 30016KT 260V320 CAVOK 25/14 Q1015 TEMPO 28015G25KT
1:00 da tarde
V
75 °F 6¼ mi+ - 290° 290° 18 kt METAR LFMK 281100Z AUTO 29018KT CAVOK 24/14 Q1016 TEMPO 28015G25KT
12:30 da tarde
V
75 °F 6¼ mi+ - 290° 290° 15 kt METAR LFMK 281030Z AUTO 29015KT 250V320 CAVOK 24/15 Q1016 TEMPO 28015G25KT
12:00 da tarde
V
73 °F 6¼ mi+ - 290° 290° 18 kt METAR LFMK 281000Z AUTO 29018KT CAVOK 23/14 Q1016 TEMPO 28015G25KT
11:30 da manhã
V
73 °F 6¼ mi+ - 280° 280° 17 kt METAR LFMK 280930Z AUTO 28017KT 250V310 CAVOK 23/14 Q1016 TEMPO 28015G25KT
11:00 da manhã
V
72 °F 6¼ mi+ - 280° 280° 15 kt METAR LFMK 280900Z AUTO 28015KT 240V320 CAVOK 22/14 Q1016 TEMPO 28015G25KT
10:30 da manhã
V
72 °F 6¼ mi+ - 280° 280° 15 kt METAR LFMK 280830Z AUTO 28015KT 240V310 CAVOK 22/15 Q1017 TEMPO 28015G25KT
10:00 da manhã
V
70 °F 6¼ mi+ - 290° 290° 16 kt METAR LFMK 280800Z AUTO 29016KT CAVOK 21/14 Q1017 NOSIG
9:30 da manhã
V
68 °F 6¼ mi+ - 280° 280° 13 kt METAR LFMK 280730Z AUTO 28013KT CAVOK 20/14 Q1017 NOSIG
9:00 da manhã
V
64 °F 6¼ mi+ - 280° 280° 12 kt METAR LFMK 280700Z AUTO 28012KT 240V300 CAVOK 18/13 Q1017 NOSIG
8:30 da manhã
V
63 °F 6¼ mi+ - 280° 280° 10 kt METAR LFMK 280630Z AUTO 28010KT 240V310 CAVOK 17/13 Q1017 NOSIG
8:00 da manhã
V
63 °F 6¼ mi+ - 270° 270° 9 kt METAR LFMK 280600Z AUTO 27009KT CAVOK 17/13 Q1018 NOSIG
7:30 da manhã
V
63 °F 6¼ mi+ - 270° 270° 9 kt METAR LFMK 280530Z AUTO 27009KT CAVOK 17/13 Q1018 NOSIG
7:00 da manhã
V
61 °F 6¼ mi+ - 270° 270° 8 kt METAR LFMK 280500Z AUTO 27008KT CAVOK 16/12 Q1018 NOSIG
6:30 da manhã
V
61 °F 6¼ mi+ - 260° 260° 9 kt METAR LFMK 280430Z AUTO 26009KT CAVOK 16/12 Q1018 NOSIG
6:00 da manhã
V
61 °F 6¼ mi+ - 260° 260° 9 kt METAR LFMK 280400Z AUTO 26009KT 230V290 CAVOK 16/12 Q1018 NOSIG
5:30 da manhã
V
63 °F 6¼ mi+ - 260° 260° 9 kt METAR LFMK 280330Z AUTO 26009KT 230V300 CAVOK 17/12 Q1018 NOSIG
5:00 da manhã
V
63 °F 6¼ mi+ - 260° 260° 8 kt METAR LFMK 280300Z AUTO 26008KT 230V290 CAVOK 17/12 Q1018
4:30 da manhã
V
63 °F 6¼ mi+ - 260° 260° 8 kt METAR LFMK 280230Z AUTO 26008KT 230V290 CAVOK 17/12 Q1018
4:00 da manhã
V
63 °F 6¼ mi+ - 260° 260° 8 kt METAR LFMK 280200Z AUTO 26008KT 220V280 CAVOK 17/12 Q1019
3:30 da manhã
V
64 °F 6¼ mi+ - 260° 260° 8 kt METAR LFMK 280130Z AUTO 26008KT CAVOK 18/12 Q1019
3:00 da manhã
V
64 °F 6¼ mi+ - 260° 260° 7 kt METAR LFMK 280100Z AUTO 26007KT CAVOK 18/13 Q1019
2:30 da manhã
V
64 °F 6¼ mi+ - 260° 260° 8 kt METAR LFMK 280030Z AUTO 26008KT CAVOK 18/13 Q1019
2:00 da manhã
V
66 °F 6¼ mi+ - 260° 260° 9 kt METAR LFMK 280000Z AUTO 26009KT 230V290 CAVOK 19/13 Q1020
1:30 da manhã
V
66 °F 6¼ mi+ - 260° 260° 8 kt METAR LFMK 272330Z AUTO 26008KT 230V290 CAVOK 19/13 Q1020
1:00 da manhã
V
68 °F 6¼ mi+ - 260° 260° 9 kt METAR LFMK 272300Z AUTO 26009KT CAVOK 20/13 Q1021
12:30 da manhã
V
66 °F 6¼ mi+ - 260° 260° 7 kt METAR LFMK 272230Z AUTO 26007KT 240V300 9999 FEW058 19/13 Q1021
12:00 da manhã
V
68 °F 6¼ mi+ - 270° 270° 6 kt METAR LFMK 272200Z AUTO 27006KT 9999 SCT056 20/13 Q1021

27 de maio de 2022

Hora Código Clima Temp. Visibilidade Tecto Vento METAR/SPECI
11:30 da tarde
V
68 °F 6¼ mi+ - 280° 280° 6 kt METAR LFMK 272130Z AUTO 28006KT CAVOK 20/13 Q1021
11:00 da tarde
V
70 °F 6¼ mi+ - 270° 270° 8 kt METAR LFMK 272100Z AUTO 27008KT 230V290 CAVOK 21/13 Q1021
10:30 da tarde
V
70 °F 6¼ mi+ - 260° 260° 8 kt METAR LFMK 272030Z AUTO 26008KT 230V290 CAVOK 21/13 Q1021
10:00 da tarde
V
70 °F 6¼ mi+ - 260° 260° 9 kt METAR LFMK 272000Z AUTO 26009KT CAVOK 21/13 Q1021
9:30 da tarde
V
72 °F 6¼ mi+ - 260° 260° 9 kt METAR LFMK 271930Z AUTO 26009KT 230V290 CAVOK 22/13 Q1020
9:00 da tarde
V
72 °F 6¼ mi+ - 270° 270° 8 kt METAR LFMK 271900Z AUTO 27008KT 240V310 CAVOK 22/13 Q1020
8:30 da tarde
V
73 °F 6¼ mi+ - 270° 270° 10 kt METAR LFMK 271830Z AUTO 27010KT CAVOK 23/13 Q1020
8:00 da tarde
V
75 °F 6¼ mi+ - 270° 270° 12 kt METAR LFMK 271800Z AUTO 27012KT 240V300 CAVOK 24/13 Q1020 NOSIG
7:30 da tarde
V
75 °F 6¼ mi+ - 280° 280° 13 kt METAR LFMK 271730Z AUTO 28013KT CAVOK 24/13 Q1020 NOSIG
7:00 da tarde
V
77 °F 6¼ mi+ - 290° 290° 13 kt METAR LFMK 271700Z AUTO 29013KT 240V320 CAVOK 25/13 Q1020 TEMPO 27016G26KT
6:30 da tarde
V
77 °F 6¼ mi+ - 280° 280° 14 kt METAR LFMK 271630Z AUTO 28014KT 250V310 9999 FEW054 25/13 Q1021 TEMPO 27016G26KT
6:00 da tarde
V
77 °F 6¼ mi+ - 280° 280° 13 kt METAR LFMK 271600Z AUTO 28013KT 250V320 9999 FEW052 25/13 Q1021 TEMPO 27016G26KT
5:30 da tarde
V
77 °F 6¼ mi+ - 280° 280° 13 kt METAR LFMK 271530Z AUTO 28013KT 9999 FEW052 25/13 Q1021 TEMPO 27016G26KT
5:00 da tarde
V
79 °F 6¼ mi+ - 280° 280° 12 kt METAR LFMK 271500Z AUTO 28012KT 240V300 9999 FEW052 26/14 Q1021 TEMPO 27016G26KT
4:30 da tarde
V
77 °F 6¼ mi+ - 300° 300° 14 kt METAR LFMK 271430Z AUTO 30014KT 260V320 9999 SCT052 25/12 Q1021 TEMPO 27016G26KT
4:00 da tarde
V
77 °F 6¼ mi+ - 290° 290° 14 kt METAR LFMK 271400Z AUTO 29014KT 260V320 9999 FEW052 25/13 Q1022 TEMPO 27016G26KT
3:30 da tarde
V
77 °F 6¼ mi+ - 290° 290° 16 kt METAR LFMK 271330Z AUTO 29016KT 9999 FEW050 25/12 Q1022 TEMPO 27016G26KT
3:00 da tarde
V
75 °F 6¼ mi+ - 290° 290° 15 kt METAR LFMK 271300Z AUTO 29015KT 250V320 9999 SCT049 24/12 Q1022 TEMPO 27016G26KT
2:30 da tarde
V
75 °F 6¼ mi+ 4.700 ft 280° 280° 14 kt METAR LFMK 271230Z AUTO 28014KT 250V310 9999 BKN047 24/13 Q1023 TEMPO 27016G26KT
2:00 da tarde
V
75 °F 6¼ mi+ - 280° 280° 14 kt METAR LFMK 271200Z AUTO 28014KT 9999 SCT045 24/12 Q1023 TEMPO 27016G26KT
1:30 da tarde
V
73 °F 6¼ mi+ 4.300 ft 280° 280° 14 kt METAR LFMK 271130Z AUTO 28014KT 240V300 9999 BKN043 23/13 Q1023 TEMPO 27016G26KT
1:00 da tarde
V
72 °F 6¼ mi+ 4.300 ft 290° 290° 16 kt METAR LFMK 271100Z AUTO 29016KT 9999 BKN043 22/12 Q1023 TEMPO 27016G26KT
12:30 da tarde
V
72 °F 6¼ mi+ 4.100 ft 280° 280° 17 kt METAR LFMK 271030Z AUTO 28017KT 250V310 9999 BKN041 BKN048 22/13 Q1024 TEMPO 27016G26KT
12:00 da tarde
V
70 °F 6¼ mi+ 3.700 ft 280° 280° 14 kt METAR LFMK 271000Z AUTO 28014KT 9999 BKN037 BKN043 21/12 Q1024 TEMPO 27016G26KT
11:30 da manhã
V
70 °F 6¼ mi+ 4.400 ft 280° 280° 15 - 25 kt METAR LFMK 270930Z AUTO 28015G25KT 9999 SCT034 BKN044 21/13 Q1024 NOSIG
11:00 da manhã
V
68 °F 6¼ mi+ - 280° 280° 16 kt METAR LFMK 270900Z AUTO 28016KT 9999 FEW029 20/13 Q1024 TEMPO 27016G26KT
10:30 da manhã
V
68 °F 6¼ mi+ - 280° 280° 16 kt METAR LFMK 270830Z AUTO 28016KT 9999 FEW022 20/13 Q1024 TEMPO 27015G25KT
10:00 da manhã
V
66 °F 6¼ mi+ - 290° 290° 14 kt METAR LFMK 270800Z AUTO 29014KT 9999 FEW021 19/13 Q1025 TEMPO 27015G25KT
9:30 da manhã
V
64 °F 6¼ mi+ - 280° 280° 14 kt METAR LFMK 270730Z AUTO 28014KT CAVOK 18/13 Q1024 TEMPO 27015G25KT
9:00 da manhã
V
63 °F 6¼ mi+ - 270° 270° 11 kt METAR LFMK 270700Z AUTO 27011KT 230V290 9999 FEW054 17/12 Q1025 TEMPO 27015G25KT
8:30 da manhã
V
59 °F 6¼ mi+ 5.200 ft 270° 270° 12 kt METAR LFMK 270630Z AUTO 27012KT 9999 BKN052 15/12 Q1025 TEMPO 27015G25KT
8:00 da manhã
V
59 °F 6¼ mi+ 5.400 ft 270° 270° 10 kt METAR LFMK 270600Z AUTO 27010KT 240V300 9999 BKN054 15/12 Q1024 TEMPO 27015G25KT BKN013
7:30 da manhã
V
57 °F 6¼ mi+ 5.600 ft 270° 270° 8 kt METAR LFMK 270530Z AUTO 27008KT 9999 BKN056 14/12 Q1025 TEMPO 27015G25KT BKN013
7:00 da manhã
V
55 °F 6¼ mi+ - 260° 260° 6 kt METAR LFMK 270500Z AUTO 26006KT CAVOK 13/12 Q1024 TEMPO 27015G25KT BKN013
6:30 da manhã
V
57 °F 6¼ mi+ - 270° 270° 9 kt METAR LFMK 270430Z AUTO 27009KT CAVOK 14/12 Q1024 TEMPO 27015G25KT BKN013
6:00 da manhã
V
57 °F 6¼ mi+ - 260° 260° 7 kt METAR LFMK 270400Z AUTO 26007KT 230V290 CAVOK 14/12 Q1024 TEMPO 27015G25KT BKN013
5:30 da manhã
V
57 °F 6¼ mi+ - 270° 270° 8 kt METAR LFMK 270330Z AUTO 27008KT CAVOK 14/12 Q1024 TEMPO 27015G25KT BKN013
5:00 da manhã
V
57 °F 6¼ mi+ - 260° 260° 8 kt METAR LFMK 270300Z AUTO 26008KT CAVOK 14/12 Q1024 TEMPO 27015G25KT BKN013
4:30 da manhã
V
57 °F 6¼ mi+ - 270° 270° 9 kt METAR LFMK 270230Z AUTO 27009KT CAVOK 14/12 Q1025 TEMPO 27015G25KT BKN013
4:00 da manhã
V
59 °F 6¼ mi+ - 270° 270° 9 kt METAR LFMK 270200Z AUTO 27009KT CAVOK 15/12 Q1025
3:30 da manhã
V
59 °F 6¼ mi+ - 270° 270° 9 kt METAR LFMK 270130Z AUTO 27009KT 230V290 9999 FEW052 15/12 Q1025
3:00 da manhã
V
59 °F 6¼ mi+ 5.400 ft 270° 270° 9 kt METAR LFMK 270100Z AUTO 27009KT 9999 BKN054 15/12 Q1025
2:30 da manhã
V
59 °F 6¼ mi+ 5.400 ft 260° 260° 9 kt METAR LFMK 270030Z AUTO 26009KT 230V290 9999 BKN054 15/12 Q1025
2:00 da manhã
V
59 °F 6¼ mi+ - 270° 270° 8 kt METAR LFMK 270000Z AUTO 27008KT 9999 FEW052 15/12 Q1026
1:30 da manhã
V
59 °F 6¼ mi+ - 260° 260° 9 kt METAR LFMK 262330Z AUTO 26009KT CAVOK 15/12 Q1026
1:00 da manhã
V
59 °F 6¼ mi+ - 260° 260° 9 kt METAR LFMK 262300Z AUTO 26009KT CAVOK 15/12 Q1026
12:30 da manhã
V
59 °F 6¼ mi+ - 260° 260° 8 kt METAR LFMK 262230Z AUTO 26008KT 230V300 CAVOK 15/12 Q1026
12:00 da manhã
V
61 °F 6¼ mi+ - 270° 270° 9 kt METAR LFMK 262200Z AUTO 27009KT CAVOK 16/12 Q1026

26 de maio de 2022

Hora Código Clima Temp. Visibilidade Tecto Vento METAR/SPECI
11:30 da tarde
V
61 °F 6¼ mi+ - 260° 260° 8 kt METAR LFMK 262130Z AUTO 26008KT CAVOK 16/12 Q1026
11:00 da tarde
V
61 °F 6¼ mi+ 6.200 ft 260° 260° 8 kt METAR LFMK 262100Z AUTO 26008KT 230V290 9999 BKN062 16/12 Q1026
10:30 da tarde
V
63 °F 6¼ mi+ 6.200 ft 270° 270° 8 kt METAR LFMK 262030Z AUTO 27008KT 9999 OVC062 17/12 Q1026
10:00 da tarde
V
63 °F 6¼ mi+ 6.400 ft 260° 260° 7 kt METAR LFMK 262000Z AUTO 26007KT 230V300 9999 BKN064 17/12 Q1026
9:30 da tarde
V
63 °F 6¼ mi+ - 270° 270° 8 kt METAR LFMK 261930Z AUTO 27008KT 240V300 9999 FEW062 17/12 Q1025
9:00 da tarde
V
63 °F 6¼ mi+ - 270° 270° 9 kt METAR LFMK 261900Z AUTO 27009KT 9999 SCT060 17/12 Q1025
8:30 da tarde
V
64 °F 6¼ mi+ - 280° 280° 11 kt METAR LFMK 261830Z AUTO 28011KT 9999 FEW058 18/12 Q1025
8:00 da tarde
V
64 °F 6¼ mi+ 5.600 ft 280° 280° 13 kt METAR LFMK 261800Z AUTO 28013KT 9999 OVC056 18/12 Q1025 NOSIG
7:30 da tarde
V
66 °F 6¼ mi+ 5.400 ft 280° 280° 13 kt METAR LFMK 261730Z AUTO 28013KT 9999 OVC054 19/12 Q1025 NOSIG
7:00 da tarde
V
66 °F 6¼ mi+ 5.600 ft 290° 290° 13 kt METAR LFMK 261700Z AUTO 29013KT 9999 OVC056 19/12 Q1025 NOSIG
6:30 da tarde
V
66 °F 6¼ mi+ 5.600 ft 290° 290° 15 kt METAR LFMK 261630Z AUTO 29015KT 9999 FEW045 OVC056 19/11 Q1025 NOSIG
6:00 da tarde
V
66 °F 6¼ mi+ 4.300 ft 290° 290° 13 kt METAR LFMK 261600Z AUTO 29013KT 9999 OVC043 19/12 Q1025 NOSIG
5:30 da tarde
V
66 °F 6¼ mi+ 5.200 ft 290° 290° 18 kt METAR LFMK 261530Z AUTO 29018KT 9999 OVC052 19/11 Q1025 NOSIG
5:00 da tarde
V
68 °F 6¼ mi+ 4.500 ft 290° 290° 15 kt METAR LFMK 261500Z AUTO 29015KT 9999 FEW038 BKN045 OVC052 20/11 Q1025 NOSIG
Dados mais antigos

Baixe nosso aplicativo

Fácil acesso a todas as condições meteorológicas da aviação no seu celular e no seu tablet.
Com muitas características não disponíveis no site, como suporte offline e uma lista pessoal de aeroportos.

Nós e terceiros acompanhamos seu comportamento na internet em nosso site com cookies. Se você continuar, nós assumimos que você concorda com nossa política de cookies. Saiba mais